createdAt,value
2018-03-19T00:01:44.438Z,101822.23
2018-03-19T00:04:10.198Z,101834.17
2018-03-19T00:06:35.937Z,101829.48
2018-03-19T00:09:01.695Z,101824.11
2018-03-19T00:11:27.430Z,101832.66
2018-03-19T00:13:53.170Z,101826.32
2018-03-19T00:16:18.914Z,101824.51
2018-03-19T00:18:44.653Z,101821.01
2018-03-19T00:21:10.372Z,101819.14
2018-03-19T00:23:36.114Z,101824.38
2018-03-19T00:26:01.838Z,101820.19
2018-03-19T00:28:27.571Z,101818.55
2018-03-19T00:30:53.315Z,101813.91
2018-03-19T00:33:19.046Z,101817.67
2018-03-19T00:35:44.781Z,101818.69
2018-03-19T00:38:10.518Z,101822.00
2018-03-19T00:40:36.266Z,101818.31
2018-03-19T00:43:02.006Z,101809.39
2018-03-19T00:45:27.752Z,101812.55
2018-03-19T00:47:53.494Z,101809.51
2018-03-19T00:50:19.234Z,101804.97
2018-03-19T00:52:44.979Z,101807.33
2018-03-19T00:55:10.718Z,101805.66
2018-03-19T00:57:36.469Z,101804.23
2018-03-19T01:00:02.228Z,101806.31
2018-03-19T01:02:27.966Z,101811.14
2018-03-19T01:04:53.731Z,101804.55
2018-03-19T01:07:19.449Z,101801.23
2018-03-19T01:09:45.185Z,101801.44
2018-03-19T01:12:10.926Z,101798.17
2018-03-19T01:14:36.655Z,101804.52
2018-03-19T01:17:02.405Z,101801.66
2018-03-19T01:19:28.145Z,101803.94
2018-03-19T01:21:53.879Z,101802.00
2018-03-19T01:24:19.609Z,101803.94
2018-03-19T01:26:45.354Z,101802.16
2018-03-19T01:29:11.090Z,101793.75
2018-03-19T01:31:36.841Z,101797.23
2018-03-19T01:34:02.572Z,101792.75
2018-03-19T01:36:28.339Z,101791.73
2018-03-19T01:38:54.077Z,101797.47
2018-03-19T01:41:19.821Z,101793.38
2018-03-19T01:43:45.549Z,101794.33
2018-03-19T01:46:11.289Z,101792.34
2018-03-19T01:48:37.010Z,101797.42
2018-03-19T01:51:02.725Z,101793.27
2018-03-19T01:53:28.450Z,101793.41
2018-03-19T01:55:54.160Z,101782.02
2018-03-19T01:58:19.889Z,101784.98
2018-03-19T02:00:45.622Z,101778.34
2018-03-19T02:03:11.352Z,101774.88
2018-03-19T02:05:37.086Z,101772.22
2018-03-19T02:08:02.834Z,101773.02
2018-03-19T02:10:28.562Z,101772.32
2018-03-19T02:12:54.293Z,101769.34
2018-03-19T02:15:20.014Z,101771.03
2018-03-19T02:17:45.746Z,101769.81
2018-03-19T02:20:11.475Z,101770.21
2018-03-19T02:22:37.205Z,101769.81
2018-03-19T02:25:02.938Z,101764.68
2018-03-19T02:27:28.674Z,101767.77
2018-03-19T02:29:54.383Z,101754.35
2018-03-19T02:32:20.115Z,101765.30
2018-03-19T02:34:45.849Z,101760.81
2018-03-19T02:37:11.595Z,101762.49
2018-03-19T02:39:37.321Z,101760.06
2018-03-19T02:42:03.058Z,101762.25
2018-03-19T02:44:28.787Z,101756.02
2018-03-19T02:46:54.526Z,101751.77
2018-03-19T02:49:20.258Z,101756.54
2018-03-19T02:51:45.985Z,101755.94
2018-03-19T02:54:11.719Z,101752.61
2018-03-19T02:56:37.439Z,101754.12
2018-03-19T02:59:03.171Z,101750.62
2018-03-19T03:01:28.910Z,101752.27
2018-03-19T03:03:54.639Z,101748.03
2018-03-19T03:06:20.382Z,101744.18
2018-03-19T03:08:46.112Z,101743.64
2018-03-19T03:11:11.837Z,101741.70
2018-03-19T03:13:37.575Z,101738.87
2018-03-19T03:16:03.294Z,101735.82
2018-03-19T03:18:29.016Z,101739.73
2018-03-19T03:20:54.767Z,101733.41
2018-03-19T03:23:20.493Z,101730.93
2018-03-19T03:25:46.246Z,101736.93
2018-03-19T03:28:11.976Z,101734.35
2018-03-19T03:30:37.700Z,101730.23
2018-03-19T03:33:03.438Z,101735.73
2018-03-19T03:35:29.162Z,101740.42
2018-03-19T03:37:54.883Z,101742.00
2018-03-19T03:40:20.608Z,101736.53
2018-03-19T03:42:46.321Z,101738.06
2018-03-19T03:45:12.066Z,101740.80
2018-03-19T03:47:37.808Z,101743.98
2018-03-19T03:50:03.546Z,101744.99
2018-03-19T03:52:29.277Z,101748.70
2018-03-19T03:54:55.002Z,101748.86
2018-03-19T03:57:20.738Z,101748.55
2018-03-19T03:59:46.469Z,101752.41
2018-03-19T04:02:12.189Z,101749.84
2018-03-19T04:04:37.919Z,101750.52
2018-03-19T04:07:03.650Z,101739.75
2018-03-19T04:09:29.387Z,101740.05
2018-03-19T04:11:55.108Z,101732.66
2018-03-19T04:14:20.851Z,101733.88
2018-03-19T04:16:46.585Z,101743.39
2018-03-19T04:19:12.311Z,101743.07
2018-03-19T04:21:38.035Z,101742.52
2018-03-19T04:24:03.764Z,101744.63
2018-03-19T04:26:29.505Z,101745.37
2018-03-19T04:28:55.225Z,101741.02
2018-03-19T04:31:20.955Z,101741.47
2018-03-19T04:33:46.682Z,101740.41
2018-03-19T04:36:12.423Z,101742.30
2018-03-19T04:38:38.157Z,101738.51
2018-03-19T04:41:03.891Z,101744.72
2018-03-19T04:43:29.670Z,101744.28
2018-03-19T04:45:55.392Z,101747.02
2018-03-19T04:48:21.121Z,101745.81
2018-03-19T04:50:46.881Z,101747.62
2018-03-19T04:53:12.598Z,101748.11
2018-03-19T04:55:38.320Z,101749.95
2018-03-19T04:58:10.919Z,101748.23
2018-03-19T05:00:36.645Z,101752.86
2018-03-19T05:03:02.399Z,101756.66
2018-03-19T05:05:28.126Z,101757.58
2018-03-19T05:07:53.862Z,101755.30
2018-03-19T05:10:19.593Z,101752.63
2018-03-19T05:12:45.327Z,101746.72
2018-03-19T05:15:11.064Z,101751.18
2018-03-19T05:17:36.825Z,101749.34
2018-03-19T05:20:02.539Z,101745.58
2018-03-19T05:22:28.284Z,101746.92
2018-03-19T05:24:54.026Z,101744.91
2018-03-19T05:27:19.779Z,101747.31
2018-03-19T05:29:45.506Z,101745.50
2018-03-19T05:32:11.250Z,101750.05
2018-03-19T05:34:36.996Z,101754.59
2018-03-19T05:37:02.788Z,101752.37
2018-03-19T05:39:28.474Z,101758.17
2018-03-19T05:41:54.208Z,101744.41
2018-03-19T05:44:19.939Z,101755.28
2018-03-19T05:46:45.685Z,101753.69
2018-03-19T05:49:11.418Z,101761.55
2018-03-19T05:51:37.138Z,101751.87
2018-03-19T05:54:02.893Z,101756.32
2018-03-19T05:56:28.629Z,101764.38
2018-03-19T05:58:54.375Z,101764.21
2018-03-19T06:01:20.119Z,101767.44
2018-03-19T06:03:45.868Z,101770.12
2018-03-19T06:06:11.595Z,101765.02
2018-03-19T06:08:37.341Z,101764.33
2018-03-19T06:11:03.073Z,101767.98
2018-03-19T06:13:28.820Z,101765.66
2018-03-19T06:15:54.549Z,101765.97
2018-03-19T06:18:20.291Z,101772.32
2018-03-19T06:20:46.028Z,101767.83
2018-03-19T06:23:11.738Z,101763.77
2018-03-19T06:25:37.479Z,101771.52
2018-03-19T06:28:03.218Z,101774.35
2018-03-19T06:30:28.986Z,101773.48
2018-03-19T06:32:54.714Z,101776.91
2018-03-19T06:35:20.459Z,101774.98
2018-03-19T06:37:46.187Z,101770.34
2018-03-19T06:40:11.927Z,101771.55
2018-03-19T06:42:37.658Z,101779.32
2018-03-19T06:45:03.420Z,101772.80
2018-03-19T06:47:29.158Z,101775.01
2018-03-19T06:49:54.905Z,101777.17
2018-03-19T06:52:20.642Z,101773.45
2018-03-19T06:54:46.374Z,101778.02
2018-03-19T06:57:12.111Z,101773.06
2018-03-19T06:59:37.842Z,101779.48
2018-03-19T07:02:03.586Z,101776.89
2018-03-19T07:04:29.314Z,101781.34
2018-03-19T07:06:55.058Z,101776.20
2018-03-19T07:09:20.798Z,101774.61
2018-03-19T07:11:46.538Z,101777.64
2018-03-19T07:14:12.263Z,101780.05
2018-03-19T07:16:38.009Z,101782.58
2018-03-19T07:19:03.746Z,101783.29
2018-03-19T07:21:29.485Z,101781.50
2018-03-19T07:23:55.216Z,101783.06
2018-03-19T07:26:20.939Z,101783.98
2018-03-19T07:28:46.665Z,101780.54
2018-03-19T07:31:12.399Z,101775.27
2018-03-19T07:33:38.127Z,101773.12
2018-03-19T07:36:03.853Z,101776.06
2018-03-19T07:38:29.573Z,101772.47
2018-03-19T07:40:55.306Z,101777.43
2018-03-19T07:43:21.041Z,101780.73
2018-03-19T07:45:46.770Z,101772.70
2018-03-19T07:48:12.516Z,101778.59
2018-03-19T07:50:38.238Z,101783.34
2018-03-19T07:53:03.978Z,101778.61
2018-03-19T07:55:29.716Z,101781.88
2018-03-19T07:57:55.443Z,101776.09
2018-03-19T08:00:21.186Z,101778.08
2018-03-19T08:02:46.930Z,101774.03
2018-03-19T08:05:12.663Z,101776.59
2018-03-19T08:07:38.386Z,101785.61
2018-03-19T08:10:04.114Z,101778.48
2018-03-19T08:12:29.854Z,101778.69
2018-03-19T08:14:55.569Z,101777.13
2018-03-19T08:17:21.294Z,101780.13
2018-03-19T08:19:47.014Z,101771.54
2018-03-19T08:22:12.766Z,101768.86
2018-03-19T08:24:38.519Z,101772.18
2018-03-19T08:27:05.142Z,101772.02
2018-03-19T08:29:30.952Z,101775.84
2018-03-19T08:31:56.679Z,101776.66
2018-03-19T08:34:22.418Z,101779.90
2018-03-19T08:36:48.142Z,101772.67
2018-03-19T08:39:13.866Z,101775.38
2018-03-19T08:41:39.623Z,101768.06
2018-03-19T08:44:05.354Z,101762.73
2018-03-19T08:46:31.077Z,101764.30
2018-03-19T08:48:56.803Z,101764.41
2018-03-19T08:51:22.535Z,101760.98
2018-03-19T08:53:48.270Z,101765.67
2018-03-19T08:56:13.990Z,101763.59
2018-03-19T08:58:39.730Z,101768.35
2018-03-19T09:01:05.459Z,101757.55
2018-03-19T09:03:31.179Z,101763.62
2018-03-19T09:05:56.911Z,101754.47
2018-03-19T09:08:22.625Z,101752.95
2018-03-19T09:10:48.366Z,101751.17
2018-03-19T09:13:14.081Z,101744.04
2018-03-19T09:15:39.811Z,101750.92
2018-03-19T09:18:05.539Z,101743.03
2018-03-19T09:20:31.285Z,101743.41
2018-03-19T09:22:57.009Z,101747.34
2018-03-19T09:25:22.741Z,101747.06
2018-03-19T09:27:48.496Z,101741.47
2018-03-19T09:30:14.235Z,101731.94
2018-03-19T09:32:39.966Z,101731.91
2018-03-19T09:35:05.904Z,101729.98
2018-03-19T09:37:31.614Z,101736.02
2018-03-19T09:39:57.353Z,101741.02
2018-03-19T09:42:23.078Z,101736.81
2018-03-19T09:44:48.819Z,101733.02
2018-03-19T09:47:14.547Z,101730.37
2018-03-19T09:49:40.301Z,101726.08
2018-03-19T09:52:06.029Z,101727.98
2018-03-19T09:54:31.754Z,101720.41
2018-03-19T09:56:57.506Z,101713.30
2018-03-19T09:59:23.225Z,101721.80
2018-03-19T10:01:48.959Z,101713.88
2018-03-19T10:04:14.694Z,101711.25
2018-03-19T10:06:40.616Z,101712.02
2018-03-19T10:09:06.339Z,101708.97
2018-03-19T10:11:32.278Z,101713.09
2018-03-19T10:13:58.046Z,101714.63
2018-03-19T10:16:23.788Z,101716.73
2018-03-19T10:18:56.559Z,101714.05
2018-03-19T10:21:22.291Z,101712.31
2018-03-19T10:23:48.000Z,101705.28
2018-03-19T10:26:13.745Z,101700.78
2018-03-19T10:28:39.470Z,101698.82
2018-03-19T10:31:05.311Z,101692.52
2018-03-19T10:33:31.049Z,101695.76
2018-03-19T10:35:56.778Z,101691.73
2018-03-19T10:38:22.522Z,101695.63
2018-03-19T10:40:48.250Z,101689.95
2018-03-19T10:43:13.979Z,101685.81
2018-03-19T10:45:39.702Z,101687.80
2018-03-19T10:48:05.454Z,101688.47
2018-03-19T10:50:31.198Z,101684.30
2018-03-19T10:52:56.991Z,101685.75
2018-03-19T10:55:22.667Z,101683.02
2018-03-19T10:57:48.402Z,101681.61
2018-03-19T11:00:14.141Z,101677.11
2018-03-19T11:02:46.030Z,101674.98
2018-03-19T11:05:17.870Z,101669.24
2018-03-19T11:07:45.463Z,101664.45
2018-03-19T11:10:11.190Z,101663.22
2018-03-19T11:12:37.725Z,101666.72
2018-03-19T11:15:03.470Z,101656.70
2018-03-19T11:17:29.228Z,101654.33
2018-03-19T11:19:54.970Z,101647.16
2018-03-19T11:22:20.701Z,101649.16
2018-03-19T11:24:46.451Z,101652.93
2018-03-19T11:27:12.187Z,101652.48
2018-03-19T11:29:37.934Z,101656.09
2018-03-19T11:32:03.683Z,101647.05
2018-03-19T11:34:29.417Z,101641.34
2018-03-19T11:36:55.158Z,101637.13
2018-03-19T11:39:20.878Z,101635.71
2018-03-19T11:41:46.648Z,101623.73
2018-03-19T11:44:12.358Z,101627.30
2018-03-19T11:46:38.114Z,101623.81
2018-03-19T11:49:03.845Z,101616.27
2018-03-19T11:51:29.574Z,101615.98
2018-03-19T11:53:55.314Z,101610.61
2018-03-19T11:56:21.046Z,101607.19
2018-03-19T11:58:46.784Z,101600.03
2018-03-19T12:01:12.614Z,101612.23
2018-03-19T12:03:38.354Z,101600.66
2018-03-19T12:06:04.098Z,101600.11
2018-03-19T12:08:29.837Z,101590.17
2018-03-19T12:10:55.562Z,101584.81
2018-03-19T12:13:21.302Z,101581.22
2018-03-19T12:15:47.018Z,101571.58
2018-03-19T12:18:12.792Z,101571.94
2018-03-19T12:20:38.538Z,101578.44
2018-03-19T12:23:04.292Z,101569.17
2018-03-19T12:25:30.018Z,101557.69
2018-03-19T12:27:55.757Z,101562.11
2018-03-19T12:30:21.481Z,101556.70
2018-03-19T12:32:47.209Z,101550.14
2018-03-19T12:35:12.936Z,101541.61
2018-03-19T12:37:38.668Z,101547.91
2018-03-19T12:40:04.402Z,101544.44
2018-03-19T12:42:30.138Z,101542.47
2018-03-19T12:44:55.882Z,101542.75
2018-03-19T12:47:21.610Z,101539.69
2018-03-19T12:49:47.350Z,101546.34
2018-03-19T12:52:13.073Z,101535.34
2018-03-19T12:54:38.814Z,101523.97
2018-03-19T12:57:04.539Z,101517.30
2018-03-19T12:59:30.278Z,101512.02
2018-03-19T13:01:55.998Z,101514.12
2018-03-19T13:04:21.730Z,101509.22
2018-03-19T13:06:47.457Z,101510.16
2018-03-19T13:09:13.214Z,101502.08
2018-03-19T13:11:38.939Z,101498.98
2018-03-19T13:14:04.673Z,101501.10
2018-03-19T13:16:30.382Z,101497.16
2018-03-19T13:18:56.109Z,101492.17
2018-03-19T13:21:21.882Z,101489.61
2018-03-19T13:23:47.615Z,101493.49
2018-03-19T13:26:13.345Z,101493.08
2018-03-19T13:28:39.072Z,101493.58
2018-03-19T13:31:04.814Z,101495.53
2018-03-19T13:33:30.551Z,101488.98
2018-03-19T13:35:56.294Z,101488.08
2018-03-19T13:38:22.023Z,101477.50
2018-03-19T13:40:47.754Z,101472.09
2018-03-19T13:43:13.486Z,101470.50
2018-03-19T13:45:39.226Z,101467.02
2018-03-19T13:48:04.970Z,101465.03
2018-03-19T13:50:30.702Z,101463.50
2018-03-19T13:52:56.422Z,101465.75
2018-03-19T13:55:22.183Z,101459.72
2018-03-19T13:57:47.919Z,101458.53
2018-03-19T14:00:13.657Z,101455.63
2018-03-19T14:02:39.424Z,101447.80
2018-03-19T14:05:05.182Z,101444.33
2018-03-19T14:07:30.911Z,101442.70
2018-03-19T14:09:56.677Z,101444.77
2018-03-19T14:12:22.534Z,101431.55
2018-03-19T14:14:48.869Z,101429.45
2018-03-19T14:17:18.463Z,101426.09
2018-03-19T14:19:46.029Z,101423.44
2018-03-19T14:22:12.449Z,101420.63
2018-03-19T14:24:38.738Z,101415.63
2018-03-19T14:27:08.401Z,101410.75
2018-03-19T14:29:35.368Z,101411.49
2018-03-19T14:32:02.509Z,101409.86
2018-03-19T14:34:29.161Z,101401.66
2018-03-19T14:36:55.951Z,101404.61
2018-03-19T14:39:23.535Z,101394.77
2018-03-19T14:41:54.219Z,101397.38
2018-03-19T14:44:21.088Z,101399.47
2018-03-19T14:46:49.349Z,101396.25
2018-03-19T14:49:17.267Z,101383.80
2018-03-19T14:51:43.772Z,101391.02
2018-03-19T14:54:09.602Z,101387.66
2018-03-19T14:56:35.422Z,101386.67
2018-03-19T14:59:01.166Z,101374.09
2018-03-19T15:01:26.917Z,101377.95
2018-03-19T15:03:53.813Z,101375.38
2018-03-19T15:06:20.650Z,101369.15
2018-03-19T15:08:46.484Z,101364.95
2018-03-19T15:11:12.634Z,101366.66
2018-03-19T15:13:38.728Z,101365.02
2018-03-19T15:16:06.246Z,101357.13
2018-03-19T15:18:35.223Z,101354.84
2018-03-19T15:21:03.853Z,101360.08
2018-03-19T15:23:30.055Z,101358.26
2018-03-19T15:25:56.707Z,101349.92
2018-03-19T15:28:22.634Z,101347.33
2018-03-19T15:30:48.367Z,101345.48
2018-03-19T15:33:14.109Z,101338.23
2018-03-19T15:35:39.845Z,101336.00
2018-03-19T15:38:05.592Z,101332.42
2018-03-19T15:40:31.323Z,101332.05
2018-03-19T15:42:57.055Z,101316.00
2018-03-19T15:45:22.794Z,101320.43
2018-03-19T15:47:48.537Z,101319.09
2018-03-19T15:50:14.263Z,101317.33
2018-03-19T15:52:39.999Z,101314.66
2018-03-19T15:55:05.733Z,101310.73
2018-03-19T15:57:31.491Z,101313.71
2018-03-19T15:59:57.230Z,101315.56
2018-03-19T16:02:22.979Z,101311.16
2018-03-19T16:04:48.724Z,101308.53
2018-03-19T16:07:14.468Z,101314.59
2018-03-19T16:09:40.198Z,101315.36
2018-03-19T16:12:05.933Z,101313.54
2018-03-19T16:14:31.673Z,101312.53
2018-03-19T16:16:57.385Z,101318.11
2018-03-19T16:19:23.109Z,101317.66
2018-03-19T16:21:48.834Z,101312.01
2018-03-19T16:24:14.769Z,101307.02
2018-03-19T16:26:40.488Z,101308.80
2018-03-19T16:29:06.266Z,101305.62
2018-03-19T16:31:32.006Z,101307.38
2018-03-19T16:33:57.751Z,101311.56
2018-03-19T16:36:23.485Z,101315.82
2018-03-19T16:38:49.221Z,101313.92
2018-03-19T16:41:14.974Z,101317.73
2018-03-19T16:43:40.919Z,101315.95
2018-03-19T16:46:06.698Z,101318.08
2018-03-19T16:48:32.470Z,101320.97
2018-03-19T16:50:58.206Z,101311.77
2018-03-19T16:53:23.962Z,101318.61
2018-03-19T16:55:49.754Z,101314.23
2018-03-19T16:58:15.543Z,101315.90
2018-03-19T17:00:41.270Z,101311.87
2018-03-19T17:03:07.020Z,101314.80
2018-03-19T17:05:32.835Z,101314.34
2018-03-19T17:07:58.569Z,101315.94
2018-03-19T17:10:24.298Z,101315.83
2018-03-19T17:12:50.056Z,101316.56
2018-03-19T17:15:15.796Z,101313.20
2018-03-19T17:17:41.533Z,101318.41
2018-03-19T17:20:07.290Z,101314.64
2018-03-19T17:22:33.010Z,101316.51
2018-03-19T17:24:58.749Z,101309.05
2018-03-19T17:27:24.493Z,101300.36
2018-03-19T17:29:50.246Z,101301.52
2018-03-19T17:32:15.982Z,101294.25
2018-03-19T17:34:41.745Z,101290.06
2018-03-19T17:37:07.506Z,101291.59
2018-03-19T17:39:33.255Z,101297.22
2018-03-19T17:41:58.994Z,101301.34
2018-03-19T17:44:24.765Z,101298.11
2018-03-19T17:46:50.507Z,101295.42
2018-03-19T17:49:16.402Z,101300.63
2018-03-19T17:51:42.147Z,101294.64
2018-03-19T17:54:08.395Z,101294.03
2018-03-19T17:56:34.143Z,101285.83
2018-03-19T17:58:59.886Z,101296.61
2018-03-19T18:01:25.630Z,101292.98
2018-03-19T18:03:51.370Z,101293.94
2018-03-19T18:06:17.106Z,101291.19
2018-03-19T18:08:42.826Z,101285.48
2018-03-19T18:11:08.566Z,101289.08
2018-03-19T18:13:34.281Z,101293.48
2018-03-19T18:16:00.020Z,101291.53
2018-03-19T18:18:27.129Z,101290.89
2018-03-19T18:20:52.922Z,101288.95
2018-03-19T18:23:18.678Z,101280.03
2018-03-19T18:25:45.447Z,101288.70
2018-03-19T18:28:12.424Z,101286.10
2018-03-19T18:30:38.197Z,101283.41
2018-03-19T18:33:03.957Z,101288.64
2018-03-19T18:35:29.703Z,101284.03
2018-03-19T18:37:55.479Z,101278.16
2018-03-19T18:40:21.222Z,101270.03
2018-03-19T18:42:46.985Z,101261.48
2018-03-19T18:45:12.745Z,101262.21
2018-03-19T18:47:38.476Z,101266.73
2018-03-19T18:50:04.257Z,101269.46
2018-03-19T18:52:29.937Z,101270.31
2018-03-19T18:54:55.691Z,101262.00
2018-03-19T18:57:21.406Z,101264.39
2018-03-19T18:59:47.122Z,101270.55
2018-03-19T19:02:12.838Z,101263.02
2018-03-19T19:04:38.553Z,101258.78
2018-03-19T19:07:04.286Z,101257.13
2018-03-19T19:09:30.018Z,101252.81
2018-03-19T19:11:55.749Z,101248.23
2018-03-19T19:14:21.473Z,101248.55
2018-03-19T19:16:47.220Z,101236.24
2018-03-19T19:19:12.944Z,101231.62
2018-03-19T19:21:38.664Z,101240.99
2018-03-19T19:24:04.387Z,101230.17
2018-03-19T19:26:30.182Z,101222.06
2018-03-19T19:28:56.139Z,101220.41
2018-03-19T19:31:22.042Z,101218.25
2018-03-19T19:33:47.982Z,101212.22
2018-03-19T19:36:13.704Z,101211.43
2018-03-19T19:38:39.422Z,101212.85
2018-03-19T19:41:05.158Z,101212.41
2018-03-19T19:43:30.889Z,101206.13
2018-03-19T19:45:56.763Z,101200.03
2018-03-19T19:48:22.799Z,101198.79
2018-03-19T19:50:48.819Z,101191.45
2018-03-19T19:53:14.830Z,101189.70
2018-03-19T19:55:40.550Z,101187.48
2018-03-19T19:58:06.277Z,101188.94
2018-03-19T20:00:32.344Z,101188.08
2018-03-19T20:02:58.072Z,101191.87
2018-03-19T20:05:23.793Z,101185.45
2018-03-19T20:07:49.529Z,101177.70
2018-03-19T20:10:15.246Z,101180.72
2018-03-19T20:12:40.969Z,101174.33
2018-03-19T20:15:06.684Z,101171.83
2018-03-19T20:17:32.414Z,101181.30
2018-03-19T20:19:58.175Z,101180.09
2018-03-19T20:22:24.010Z,101176.66
2018-03-19T20:24:49.726Z,101167.12
2018-03-19T20:27:15.449Z,101167.17
2018-03-19T20:29:41.195Z,101161.09
2018-03-19T20:32:06.918Z,101164.52
2018-03-19T20:34:32.655Z,101158.48
2018-03-19T20:36:58.554Z,101156.02
2018-03-19T20:39:24.498Z,101156.48
2018-03-19T20:41:50.224Z,101153.83
2018-03-19T20:44:15.943Z,101146.13
2018-03-19T20:46:41.694Z,101139.89
2018-03-19T20:49:07.479Z,101144.73
2018-03-19T20:51:33.173Z,101130.91
2018-03-19T20:53:58.982Z,101132.20
2018-03-19T20:56:24.851Z,101128.72
2018-03-19T20:58:50.766Z,101126.55
2018-03-19T21:01:16.760Z,101118.84
2018-03-19T21:03:42.837Z,101114.49
2018-03-19T21:06:08.779Z,101122.30
2018-03-19T21:08:34.537Z,101106.25
2018-03-19T21:11:00.410Z,101107.21
2018-03-19T21:13:26.363Z,101109.84
2018-03-19T21:15:52.264Z,101103.80
2018-03-19T21:18:18.234Z,101109.02
2018-03-19T21:20:44.075Z,101097.77
2018-03-19T21:23:09.822Z,101101.22
2018-03-19T21:25:35.574Z,101094.80
2018-03-19T21:28:01.310Z,101086.59
2018-03-19T21:30:27.048Z,101084.44
2018-03-19T21:32:52.780Z,101060.16
2018-03-19T21:35:18.521Z,101075.73
2018-03-19T21:37:44.250Z,101067.50
2018-03-19T21:40:09.982Z,101062.40
2018-03-19T21:42:35.701Z,101059.44
2018-03-19T21:45:01.442Z,101060.72
2018-03-19T21:47:27.185Z,101057.68
2018-03-19T21:49:53.055Z,101053.41
2018-03-19T21:52:18.798Z,101046.00
2018-03-19T21:54:44.546Z,101050.34
2018-03-19T21:57:10.257Z,101035.56
2018-03-19T21:59:36.001Z,101038.22
2018-03-19T22:02:01.734Z,101031.30
2018-03-19T22:04:27.742Z,101038.69
2018-03-19T22:06:53.469Z,101044.37
2018-03-19T22:09:19.229Z,101035.69
2018-03-19T22:11:45.136Z,101034.00
2018-03-19T22:14:11.058Z,101030.95
2018-03-19T22:16:36.809Z,101034.45
2018-03-19T22:19:02.683Z,101035.73
2018-03-19T22:21:28.520Z,101029.63
2018-03-19T22:23:54.251Z,101024.78
2018-03-19T22:26:19.989Z,101020.79
2018-03-19T22:28:45.706Z,101022.52
2018-03-19T22:31:11.428Z,101020.71
2018-03-19T22:33:37.140Z,101013.80
2018-03-19T22:36:02.870Z,101014.67
2018-03-19T22:38:28.596Z,101011.56
2018-03-19T22:40:54.325Z,101001.11
2018-03-19T22:43:20.043Z,101002.87
2018-03-19T22:45:45.774Z,100995.08
2018-03-19T22:48:11.518Z,100995.97
2018-03-19T22:50:37.230Z,100996.03
2018-03-19T22:53:02.958Z,100996.87
2018-03-19T22:55:28.683Z,100991.67
2018-03-19T22:57:54.413Z,100989.96
2018-03-19T23:00:20.124Z,100983.98
2018-03-19T23:02:45.861Z,100990.93
2018-03-19T23:05:26.561Z,100983.11
2018-03-19T23:07:52.286Z,100975.75
2018-03-19T23:10:17.997Z,100969.70
2018-03-19T23:12:43.753Z,100971.44
2018-03-19T23:15:09.474Z,100962.35
2018-03-19T23:17:35.227Z,100959.83
2018-03-19T23:20:00.959Z,100961.60
2018-03-19T23:22:26.690Z,100951.19
2018-03-19T23:24:52.406Z,100945.69
2018-03-19T23:27:18.130Z,100941.83
2018-03-19T23:29:43.853Z,100939.73
2018-03-19T23:32:09.578Z,100936.73
2018-03-19T23:34:35.297Z,100935.15
2018-03-19T23:37:01.017Z,100926.85
2018-03-19T23:39:26.758Z,100912.01
2018-03-19T23:41:52.474Z,100914.23
2018-03-19T23:44:18.213Z,100907.27
2018-03-19T23:46:43.933Z,100908.19
2018-03-19T23:49:09.666Z,100901.73
2018-03-19T23:51:35.389Z,100898.27
2018-03-19T23:54:01.114Z,100894.39
2018-03-19T23:56:26.840Z,100900.89
2018-03-19T23:58:52.566Z,100901.36
